createdAt,value
2018-07-20T00:00:39.962Z,24.50
2018-07-20T00:05:35.170Z,24.50
2018-07-20T00:08:02.400Z,24.50
2018-07-20T00:10:29.527Z,24.50
2018-07-20T00:12:56.713Z,24.40
2018-07-20T00:17:51.141Z,24.40
2018-07-20T00:22:45.553Z,24.40
2018-07-20T00:27:40.001Z,24.40
2018-07-20T00:30:07.195Z,24.40
2018-07-20T00:32:34.381Z,24.40
2018-07-20T00:37:28.942Z,24.50
2018-07-20T00:39:56.145Z,24.40
2018-07-20T00:44:50.552Z,24.50
2018-07-20T00:47:17.733Z,24.50
2018-07-20T00:49:44.933Z,24.50
2018-07-20T00:52:12.116Z,24.50
2018-07-20T00:54:39.393Z,24.50
2018-07-20T00:59:33.834Z,24.50
2018-07-20T01:02:01.008Z,24.50
2018-07-20T01:04:28.185Z,24.50
2018-07-20T01:06:55.373Z,24.50
2018-07-20T01:11:49.782Z,24.50
2018-07-20T01:14:16.953Z,24.50
2018-07-20T01:16:44.181Z,24.50
2018-07-20T01:19:11.357Z,24.50
2018-07-20T02:46:05.141Z,24.50
2018-07-20T02:48:32.319Z,24.30
2018-07-20T02:50:59.481Z,24.30
2018-07-20T02:53:26.688Z,24.30
2018-07-20T02:55:53.880Z,24.30
2018-07-20T02:58:21.413Z,24.20
2018-07-20T03:00:48.606Z,24.20
2018-07-20T03:03:15.781Z,24.20
2018-07-20T03:05:43.239Z,24.20
2018-07-20T03:08:10.439Z,24.20
2018-07-20T03:10:37.626Z,24.20
2018-07-20T03:13:05.367Z,24.20
2018-07-20T03:15:32.545Z,24.20
2018-07-20T03:17:59.694Z,24.20
2018-07-20T03:22:54.125Z,24.20
2018-07-20T03:27:48.714Z,24.20
2018-07-20T03:32:43.162Z,24.30
2018-07-20T03:35:10.574Z,24.30
2018-07-20T03:37:37.772Z,24.30
2018-07-20T03:40:05.205Z,24.30
2018-07-20T03:42:32.772Z,24.30
2018-07-20T03:44:59.949Z,24.30
2018-07-20T03:49:54.373Z,24.30
2018-07-20T03:52:21.566Z,24.30
2018-07-20T03:54:48.769Z,24.30
2018-07-20T03:57:16.313Z,24.30
2018-07-20T03:59:43.533Z,24.20
2018-07-20T04:02:10.744Z,24.30
2018-07-20T04:04:38.503Z,24.30
2018-07-20T04:07:05.759Z,24.30
2018-07-20T04:09:32.921Z,24.30
2018-07-20T04:12:00.107Z,24.40
2018-07-20T04:14:27.281Z,24.40
2018-07-20T04:16:54.793Z,24.40
2018-07-20T04:19:21.949Z,24.40
2018-07-20T04:21:49.127Z,24.40
2018-07-20T04:26:43.940Z,24.40
2018-07-20T04:29:11.105Z,24.40
2018-07-20T04:34:05.506Z,24.40
2018-07-20T04:36:32.769Z,24.40
2018-07-20T04:41:27.249Z,24.40
2018-07-20T04:43:54.444Z,24.40
2018-07-20T04:46:21.605Z,24.40
2018-07-20T04:51:16.067Z,24.40
2018-07-20T04:53:43.230Z,24.40
2018-07-20T04:56:10.402Z,24.40
2018-07-20T04:58:37.570Z,24.40
2018-07-20T05:01:04.817Z,24.40
2018-07-20T05:03:31.980Z,24.50
2018-07-20T05:05:59.206Z,24.50
2018-07-20T05:10:53.522Z,24.60
2018-07-20T05:13:22.739Z,24.60
2018-07-20T05:15:49.898Z,24.70
2018-07-20T05:18:19.095Z,24.70
2018-07-20T05:20:46.268Z,24.80
2018-07-20T05:25:40.645Z,25.00
2018-07-20T05:28:07.799Z,25.10
2018-07-20T05:30:34.957Z,25.10
2018-07-20T05:33:02.122Z,25.20
2018-07-20T05:35:31.330Z,25.30
2018-07-20T05:37:58.493Z,25.30
2018-07-20T05:40:25.638Z,25.40
2018-07-20T05:42:52.805Z,25.40
2018-07-20T05:45:19.969Z,25.50
2018-07-20T05:47:47.125Z,25.50
2018-07-20T05:50:14.292Z,25.60
2018-07-20T05:52:41.469Z,25.60
2018-07-20T05:57:36.014Z,25.80
2018-07-20T06:00:03.821Z,25.90
2018-07-20T06:02:30.993Z,26.00
2018-07-20T06:07:25.673Z,26.00
2018-07-20T06:09:52.829Z,26.00
2018-07-20T06:12:20.003Z,26.00
2018-07-20T06:14:47.165Z,25.90
2018-07-20T06:17:14.345Z,25.80
2018-07-20T06:19:41.529Z,25.80
2018-07-20T06:22:08.728Z,25.70
2018-07-20T06:24:35.937Z,25.60
2018-07-20T06:27:03.105Z,25.60
2018-07-20T06:29:30.757Z,25.60
2018-07-20T06:31:57.922Z,25.50
2018-07-20T06:34:25.119Z,25.50
2018-07-20T06:36:52.297Z,25.50
2018-07-20T06:41:50.673Z,25.40
2018-07-20T06:44:17.863Z,25.40
2018-07-20T06:46:45.092Z,25.40
2018-07-20T06:49:12.265Z,25.40
2018-07-20T06:54:06.969Z,25.30
2018-07-20T06:56:34.170Z,25.30
2018-07-20T06:59:01.341Z,25.30
2018-07-20T07:01:28.841Z,25.30
2018-07-20T07:03:56.002Z,25.30
2018-07-20T07:06:23.326Z,25.30
2018-07-20T07:08:50.503Z,25.30
2018-07-20T07:11:17.677Z,25.40
2018-07-20T07:13:50.856Z,25.40
2018-07-20T07:16:18.013Z,25.40
2018-07-20T07:18:47.457Z,25.40
2018-07-20T07:23:41.882Z,25.50
2018-07-20T07:26:09.001Z,25.40
2018-07-20T07:28:36.145Z,25.40
2018-07-20T07:31:03.295Z,25.50
2018-07-20T07:33:30.457Z,25.50
2018-07-20T07:35:57.925Z,25.40
2018-07-20T07:38:25.240Z,25.40
2018-07-20T07:40:52.408Z,25.50
2018-07-20T07:43:19.589Z,25.50
2018-07-20T07:45:46.765Z,25.50
2018-07-20T07:48:14.419Z,25.50
2018-07-20T07:50:41.599Z,25.50
2018-07-20T07:55:42.760Z,25.40
2018-07-20T08:00:52.200Z,25.40
2018-07-20T08:03:26.525Z,25.40
2018-07-20T08:06:00.657Z,25.50
2018-07-20T08:08:31.883Z,25.50
2018-07-20T08:16:16.487Z,25.50
2018-07-20T08:18:50.132Z,25.60
2018-07-20T08:21:22.537Z,25.60
2018-07-20T08:23:50.197Z,25.70
2018-07-20T08:26:17.365Z,25.70
2018-07-20T08:28:44.829Z,25.70
2018-07-20T08:31:11.985Z,25.80
2018-07-20T08:33:39.165Z,25.80
2018-07-20T08:38:33.569Z,25.80
2018-07-20T08:41:00.738Z,25.80
2018-07-20T08:43:27.901Z,25.80
2018-07-20T08:45:55.068Z,25.80
2018-07-20T08:48:22.237Z,25.80
2018-07-20T08:50:49.709Z,25.80
2018-07-20T08:53:16.889Z,25.80
2018-07-20T08:55:44.065Z,25.80
2018-07-20T08:58:11.617Z,25.80
2018-07-20T09:00:38.796Z,25.90
2018-07-20T09:03:05.971Z,25.90
2018-07-20T09:05:33.185Z,25.90
2018-07-20T09:08:00.349Z,25.90
2018-07-20T09:10:27.501Z,25.90
2018-07-20T09:12:56.709Z,25.90
2018-07-20T09:15:23.890Z,26.00
2018-07-20T09:17:51.073Z,26.00
2018-07-20T09:25:12.889Z,26.10
2018-07-20T09:27:40.096Z,26.10
2018-07-20T09:30:07.257Z,26.20
2018-07-20T09:32:34.433Z,26.20
2018-07-20T09:35:01.574Z,26.30
2018-07-20T09:37:28.741Z,26.30
2018-07-20T09:39:55.930Z,26.40
2018-07-20T09:42:23.101Z,26.40
2018-07-20T09:44:50.257Z,26.40
2018-07-20T09:47:17.395Z,26.50
2018-07-20T09:49:44.562Z,26.50
2018-07-20T09:52:11.742Z,26.50
2018-07-20T09:54:38.907Z,26.60
2018-07-20T09:57:06.118Z,26.60
2018-07-20T09:59:33.309Z,26.60
2018-07-20T10:02:01.372Z,26.70
2018-07-20T10:07:04.621Z,26.70
2018-07-20T10:11:58.977Z,26.70
2018-07-20T10:14:26.172Z,26.70
2018-07-20T10:16:53.412Z,26.70
2018-07-20T10:21:47.876Z,26.70
2018-07-20T10:24:15.048Z,26.70
2018-07-20T10:26:42.225Z,26.70
2018-07-20T10:29:09.637Z,26.80
2018-07-20T10:31:36.793Z,26.80
2018-07-20T10:34:03.982Z,26.80
2018-07-20T10:36:31.153Z,26.80
2018-07-20T10:38:58.324Z,26.80
2018-07-20T10:43:55.003Z,26.80
2018-07-20T10:46:22.153Z,26.80
2018-07-20T10:48:49.318Z,26.70
2018-07-20T10:51:16.486Z,26.80
2018-07-20T10:53:43.665Z,26.80
2018-07-20T10:56:11.014Z,26.80
2018-07-20T10:58:38.218Z,26.90
2018-07-20T11:01:05.415Z,26.90
2018-07-20T11:03:35.176Z,26.90
2018-07-20T11:06:02.349Z,26.90
2018-07-20T11:08:29.548Z,26.90
2018-07-20T11:10:56.721Z,26.90
2018-07-20T11:13:23.913Z,27.00
2018-07-20T11:18:18.725Z,27.10
2018-07-20T11:20:45.907Z,27.10
2018-07-20T11:23:13.109Z,27.20
2018-07-20T11:25:44.285Z,27.20
2018-07-20T11:28:11.470Z,27.20
2018-07-20T11:30:38.637Z,27.30
2018-07-20T11:35:33.316Z,27.20
2018-07-20T11:38:00.497Z,27.20
2018-07-20T11:40:27.692Z,27.20
2018-07-20T11:42:54.829Z,27.20
2018-07-20T11:45:22.044Z,27.20
2018-07-20T11:47:49.497Z,27.20
2018-07-20T11:50:16.717Z,27.20
2018-07-20T11:55:11.477Z,27.20
2018-07-20T11:57:38.661Z,27.20
2018-07-20T12:00:05.970Z,27.30
2018-07-20T12:02:33.185Z,27.30
2018-07-20T12:07:27.565Z,27.40
2018-07-20T12:09:56.869Z,27.40
2018-07-20T12:12:24.045Z,27.50
2018-07-20T12:14:51.658Z,27.50
2018-07-20T12:17:19.149Z,27.50
2018-07-20T12:19:46.353Z,27.50
2018-07-20T12:22:13.473Z,27.50
2018-07-20T12:24:41.025Z,27.50
2018-07-20T12:27:08.449Z,27.50
2018-07-20T12:32:02.809Z,27.50
2018-07-20T12:34:29.972Z,27.50
2018-07-20T12:36:57.158Z,27.50
2018-07-20T12:39:24.291Z,27.60
2018-07-20T12:41:51.467Z,27.60
2018-07-20T12:44:19.085Z,27.60
2018-07-20T12:46:46.249Z,27.60
2018-07-20T12:49:13.429Z,27.60
2018-07-20T12:51:40.603Z,27.60
2018-07-20T12:54:07.768Z,27.70
2018-07-20T12:59:02.135Z,27.70
2018-07-20T13:01:29.265Z,27.80
2018-07-20T13:03:56.741Z,27.80
2018-07-20T13:06:23.922Z,27.90
2018-07-20T13:11:18.310Z,28.00
2018-07-20T13:13:45.499Z,28.00
2018-07-20T13:16:12.642Z,28.00
2018-07-20T13:18:39.822Z,28.00
2018-07-20T13:23:34.216Z,28.00
2018-07-20T13:26:01.366Z,28.00
2018-07-20T13:28:30.501Z,28.00
2018-07-20T13:33:26.921Z,28.00
2018-07-20T13:35:54.169Z,28.10
2018-07-20T13:38:21.297Z,28.10
2018-07-20T13:40:52.437Z,28.10
2018-07-20T13:43:19.600Z,28.20
2018-07-20T13:45:46.763Z,28.20
2018-07-20T13:48:14.237Z,28.30
2018-07-20T13:50:41.383Z,28.30
2018-07-20T13:53:08.569Z,28.30
2018-07-20T13:55:35.724Z,28.30
2018-07-20T13:58:02.875Z,28.30
2018-07-20T14:00:30.320Z,28.30
2018-07-20T14:02:57.449Z,28.30
2018-07-20T14:05:24.716Z,28.30
2018-07-20T14:07:51.903Z,28.30
2018-07-20T14:10:19.057Z,28.20
2018-07-20T14:12:46.195Z,28.20
2018-07-20T14:15:13.341Z,28.20
2018-07-20T14:17:40.478Z,28.30
2018-07-20T14:22:34.862Z,28.30
2018-07-20T14:25:02.048Z,28.30
2018-07-20T14:27:29.209Z,28.30
2018-07-20T14:29:56.373Z,28.30
2018-07-20T14:32:23.533Z,28.30
2018-07-20T14:34:52.957Z,28.30
2018-07-20T14:37:20.097Z,28.40
2018-07-20T14:39:47.251Z,28.40
2018-07-20T14:42:14.405Z,28.40
2018-07-20T14:44:41.530Z,28.40
2018-07-20T14:47:09.070Z,28.40
2018-07-20T14:49:36.217Z,28.40
2018-07-20T14:52:03.961Z,28.40
2018-07-20T14:54:31.104Z,28.40
2018-07-20T14:56:58.257Z,28.40
2018-07-20T14:59:25.637Z,28.40
2018-07-20T15:01:52.790Z,28.30
2018-07-20T15:04:19.957Z,28.30
2018-07-20T15:06:47.152Z,28.30
2018-07-20T15:09:14.269Z,28.30
2018-07-20T15:11:41.464Z,28.30
2018-07-20T15:16:36.049Z,28.30
2018-07-20T15:19:03.224Z,28.20
2018-07-20T15:21:30.754Z,28.10
2018-07-20T15:23:57.906Z,28.10
2018-07-20T15:26:25.078Z,28.10
2018-07-20T15:28:54.233Z,28.00
2018-07-20T15:31:25.381Z,28.00
2018-07-20T15:33:52.585Z,28.00
2018-07-20T15:36:19.669Z,28.00
2018-07-20T15:43:41.510Z,28.00
2018-07-20T15:46:09.501Z,28.00
2018-07-20T15:48:36.633Z,28.00
2018-07-20T15:51:03.777Z,28.00
2018-07-20T15:53:38.327Z,27.90
2018-07-20T15:55:58.630Z,27.90
2018-07-20T15:58:25.938Z,27.90
2018-07-20T16:00:53.385Z,27.90
2018-07-20T16:05:47.754Z,27.90
2018-07-20T16:08:15.421Z,27.80
2018-07-20T16:13:09.791Z,27.80
2018-07-20T16:15:36.949Z,27.80
2018-07-20T16:18:04.353Z,27.80
2018-07-20T16:20:31.501Z,27.80
2018-07-20T16:22:59.046Z,27.80
2018-07-20T16:25:26.194Z,27.80
2018-07-20T16:27:53.355Z,27.80
2018-07-20T16:30:24.813Z,27.80
2018-07-20T16:32:51.979Z,27.80
2018-07-20T16:35:19.725Z,27.80
2018-07-20T16:37:47.205Z,27.80
2018-07-20T16:40:14.376Z,27.80
2018-07-20T16:42:41.574Z,27.80
2018-07-20T16:47:36.235Z,27.80
2018-07-20T16:50:03.725Z,27.80
2018-07-20T16:52:30.909Z,27.70
2018-07-20T16:57:31.325Z,27.60
2018-07-20T16:59:58.474Z,27.60
2018-07-20T17:02:29.199Z,27.60
2018-07-20T17:04:56.381Z,27.60
2018-07-20T17:09:51.073Z,27.50
2018-07-20T17:12:18.227Z,27.40
2018-07-20T17:14:45.395Z,27.40
2018-07-20T17:17:14.687Z,27.40
2018-07-20T17:19:42.022Z,27.40
2018-07-20T17:22:09.211Z,27.30
2018-07-20T17:24:36.343Z,27.30
2018-07-20T17:27:03.794Z,27.30
2018-07-20T17:29:30.983Z,27.30
2018-07-20T17:31:58.165Z,27.20
2018-07-20T17:34:25.307Z,27.20
2018-07-20T17:36:52.466Z,27.20
2018-07-20T17:39:19.661Z,27.20
2018-07-20T17:41:46.893Z,27.20
2018-07-20T17:46:41.919Z,27.20
2018-07-20T17:49:09.085Z,27.10
2018-07-20T17:54:03.474Z,27.10
2018-07-20T17:56:30.632Z,27.00
2018-07-20T17:58:57.789Z,27.00
2018-07-20T18:01:24.935Z,27.00
2018-07-20T18:03:52.079Z,27.00
2018-07-20T18:06:19.239Z,27.00
2018-07-20T18:08:46.573Z,26.90
2018-07-20T18:11:14.030Z,26.90
2018-07-20T18:13:41.717Z,26.90
2018-07-20T18:16:08.914Z,26.90
2018-07-20T18:21:03.599Z,26.80
2018-07-20T18:23:30.757Z,26.80
2018-07-20T18:25:57.938Z,26.80
2018-07-20T18:28:25.102Z,26.80
2018-07-20T18:30:52.980Z,26.80
2018-07-20T18:35:47.329Z,26.70
2018-07-20T18:38:14.597Z,26.70
2018-07-20T18:40:41.927Z,26.70
2018-07-20T18:45:36.264Z,26.60
2018-07-20T18:48:03.413Z,26.70
2018-07-20T18:50:30.549Z,26.60
2018-07-20T18:52:57.736Z,26.70
2018-07-20T18:55:24.893Z,26.60
2018-07-20T18:57:52.050Z,26.60
2018-07-20T19:00:19.212Z,26.60
2018-07-20T19:02:46.364Z,26.60
2018-07-20T19:05:13.553Z,26.50
2018-07-20T19:07:40.686Z,26.50
2018-07-20T19:10:07.865Z,26.50
2018-07-20T19:12:35.025Z,26.50
2018-07-20T19:15:02.209Z,26.50
2018-07-20T19:17:29.377Z,26.50
2018-07-20T19:19:56.557Z,26.50
2018-07-20T19:22:23.714Z,26.50
2018-07-20T19:24:50.858Z,26.50
2018-07-20T19:27:18.009Z,26.50
2018-07-20T19:29:45.150Z,26.50
2018-07-20T19:32:12.684Z,26.50
2018-07-20T19:34:39.820Z,26.50
2018-07-20T19:37:06.974Z,26.40
2018-07-20T19:39:34.119Z,26.40
2018-07-20T19:42:01.285Z,26.40
2018-07-20T19:44:28.725Z,26.40
2018-07-20T19:46:55.935Z,26.40
2018-07-20T19:51:50.302Z,26.30
2018-07-20T19:54:17.495Z,26.30
2018-07-20T19:59:12.180Z,26.30
2018-07-20T20:01:39.349Z,26.30
2018-07-20T20:04:06.501Z,26.30
2018-07-20T20:06:33.661Z,26.30
2018-07-20T20:09:00.825Z,26.30
2018-07-20T20:11:27.982Z,26.30
2018-07-20T20:13:55.510Z,26.30
2018-07-20T20:16:22.655Z,26.30
2018-07-20T20:18:49.828Z,26.30
2018-07-20T20:21:17.258Z,26.20
2018-07-20T20:23:44.701Z,26.20
2018-07-20T20:28:39.169Z,26.20
2018-07-20T20:31:06.346Z,26.20
2018-07-20T20:33:33.529Z,26.10
2018-07-20T20:36:00.776Z,26.10
2018-07-20T20:38:27.889Z,26.10
2018-07-20T20:40:55.117Z,26.00
2018-07-20T20:43:22.316Z,26.00
2018-07-20T20:45:49.474Z,26.00
2018-07-20T20:48:16.638Z,25.90
2018-07-20T20:50:43.816Z,25.90
2018-07-20T20:55:38.184Z,25.80
2018-07-20T20:58:05.377Z,25.80
2018-07-20T21:02:59.778Z,25.70
2018-07-20T21:05:27.112Z,25.70
2018-07-20T21:07:54.269Z,25.60
2018-07-20T21:10:21.489Z,25.60
2018-07-20T21:12:48.982Z,25.60
2018-07-20T21:15:16.143Z,25.60
2018-07-20T21:17:43.309Z,25.50
2018-07-20T21:20:10.862Z,25.50
2018-07-20T21:22:38.022Z,25.50
2018-07-20T21:25:05.735Z,25.50
2018-07-20T21:30:00.100Z,25.50
2018-07-20T21:32:27.302Z,25.40
2018-07-20T21:37:21.997Z,25.40
2018-07-20T21:39:49.178Z,25.40
2018-07-20T21:44:43.731Z,25.30
2018-07-20T21:47:10.946Z,25.30
2018-07-20T21:52:05.307Z,25.30
2018-07-20T21:54:32.470Z,25.30
2018-07-20T21:56:59.659Z,25.30
2018-07-20T21:59:27.190Z,25.30
2018-07-20T22:01:54.357Z,25.30
2018-07-20T22:04:21.543Z,25.30
2018-07-20T22:06:50.037Z,25.30
2018-07-20T22:11:44.412Z,25.20
2018-07-20T22:14:11.601Z,25.20
2018-07-20T22:19:05.984Z,25.10
2018-07-20T22:21:33.424Z,25.10
2018-07-20T22:24:00.579Z,25.10
2018-07-20T22:26:27.742Z,25.10
2018-07-20T22:28:54.905Z,25.10
2018-07-20T22:31:22.088Z,25.10
2018-07-20T22:33:49.222Z,25.10
2018-07-20T22:36:16.441Z,25.10
2018-07-20T22:38:43.603Z,25.10
2018-07-20T22:41:10.785Z,25.10
2018-07-20T22:43:38.238Z,25.10
2018-07-20T22:46:05.754Z,25.10
2018-07-20T22:51:00.102Z,25.10
2018-07-20T22:53:27.264Z,25.10
2018-07-20T22:55:54.425Z,25.10
2018-07-20T22:58:21.593Z,25.10
2018-07-20T23:00:48.758Z,25.10
2018-07-20T23:03:15.917Z,25.10
2018-07-20T23:05:43.081Z,25.10
2018-07-20T23:08:10.221Z,25.20
2018-07-20T23:10:37.667Z,25.10
2018-07-20T23:13:04.849Z,25.10
2018-07-20T23:15:32.002Z,25.20
2018-07-20T23:17:59.160Z,25.10
2018-07-20T23:20:26.309Z,25.10
2018-07-20T23:22:53.463Z,25.10
2018-07-20T23:25:20.622Z,25.10
2018-07-20T23:27:47.763Z,25.10
2018-07-20T23:30:14.935Z,25.10
2018-07-20T23:32:42.100Z,25.10
2018-07-20T23:35:09.267Z,25.10
2018-07-20T23:40:04.145Z,25.10
2018-07-20T23:42:31.295Z,25.10
2018-07-20T23:44:58.453Z,25.00
2018-07-20T23:47:25.645Z,25.00
2018-07-20T23:49:52.969Z,25.00
2018-07-20T23:52:20.179Z,25.00
2018-07-20T23:57:14.848Z,25.00
2018-07-20T23:59:42.034Z,25.00
